sensor_id;sensor_type;location;lat;lon;timestamp;P1;durP1;ratioP1;P2;durP2;ratioP2
43511;SDS011;34054;52.100;5.116;2023-05-07T00:00:15;14.72;;;12.76;;
43511;SDS011;34054;52.100;5.116;2023-05-07T00:00:49;15.10;;;12.76;;
43511;SDS011;34054;52.100;5.116;2023-05-07T00:01:21;15.98;;;13.36;;
43511;SDS011;34054;52.100;5.116;2023-05-07T00:01:53;16.74;;;14.06;;
43511;SDS011;34054;52.100;5.116;2023-05-07T00:02:24;15.16;;;13.74;;
43511;SDS011;34054;52.100;5.116;2023-05-07T00:02:56;13.65;;;12.40;;
43511;SDS011;34054;52.100;5.116;2023-05-07T00:03:27;14.40;;;12.66;;
43511;SDS011;34054;52.100;5.116;2023-05-07T00:03:59;19.48;;;12.46;;
43511;SDS011;34054;52.100;5.116;2023-05-07T00:04:31;20.88;;;14.20;;
43511;SDS011;34054;52.100;5.116;2023-05-07T00:05:07;16.90;;;13.96;;
43511;SDS011;34054;52.100;5.116;2023-05-07T00:05:39;14.90;;;13.40;;
43511;SDS011;34054;52.100;5.116;2023-05-07T00:06:13;14.74;;;13.14;;
43511;SDS011;34054;52.100;5.116;2023-05-07T00:06:45;16.14;;;14.68;;
43511;SDS011;34054;52.100;5.116;2023-05-07T00:07:16;16.40;;;12.84;;
43511;SDS011;34054;52.100;5.116;2023-05-07T00:07:48;14.62;;;13.04;;
43511;SDS011;34054;52.100;5.116;2023-05-07T00:08:19;14.22;;;12.56;;
43511;SDS011;34054;52.100;5.116;2023-05-07T00:08:51;17.10;;;15.26;;
43511;SDS011;34054;52.100;5.116;2023-05-07T00:09:23;11.88;;;10.88;;
43511;SDS011;34054;52.100;5.116;2023-05-07T00:09:54;24.00;;;13.88;;
43511;SDS011;34054;52.100;5.116;2023-05-07T00:10:25;15.52;;;13.94;;
43511;SDS011;34054;52.100;5.116;2023-05-07T00:10:57;16.64;;;13.48;;
43511;SDS011;34054;52.100;5.116;2023-05-07T00:11:29;15.42;;;12.32;;
43511;SDS011;34054;52.100;5.116;2023-05-07T00:12:00;14.96;;;13.52;;
43511;SDS011;34054;52.100;5.116;2023-05-07T00:12:32;18.04;;;13.98;;
43511;SDS011;34054;52.100;5.116;2023-05-07T00:13:04;16.38;;;12.62;;
43511;SDS011;34054;52.100;5.116;2023-05-07T00:13:35;12.52;;;11.23;;
43511;SDS011;34054;52.100;5.116;2023-05-07T00:14:07;12.58;;;11.26;;
43511;SDS011;34054;52.100;5.116;2023-05-07T00:14:38;14.14;;;12.68;;
43511;SDS011;34054;52.100;5.116;2023-05-07T00:15:10;14.02;;;12.84;;
43511;SDS011;34054;52.100;5.116;2023-05-07T00:15:41;17.55;;;14.73;;
43511;SDS011;34054;52.100;5.116;2023-05-07T00:16:13;15.66;;;13.46;;
43511;SDS011;34054;52.100;5.116;2023-05-07T00:16:44;15.00;;;12.74;;
43511;SDS011;34054;52.100;5.116;2023-05-07T00:17:15;15.00;;;13.50;;
43511;SDS011;34054;52.100;5.116;2023-05-07T00:17:46;19.64;;;15.98;;
43511;SDS011;34054;52.100;5.116;2023-05-07T00:18:19;15.48;;;13.82;;
43511;SDS011;34054;52.100;5.116;2023-05-07T00:18:53;16.14;;;14.52;;
43511;SDS011;34054;52.100;5.116;2023-05-07T00:19:24;16.02;;;12.36;;
43511;SDS011;34054;52.100;5.116;2023-05-07T00:19:56;18.84;;;16.02;;
43511;SDS011;34054;52.100;5.116;2023-05-07T00:20:27;19.80;;;13.44;;
43511;SDS011;34054;52.100;5.116;2023-05-07T00:20:58;17.64;;;15.56;;
43511;SDS011;34054;52.100;5.116;2023-05-07T00:21:32;13.92;;;12.68;;
43511;SDS011;34054;52.100;5.116;2023-05-07T00:22:03;17.98;;;16.20;;
43511;SDS011;34054;52.100;5.116;2023-05-07T00:22:34;18.86;;;14.80;;
43511;SDS011;34054;52.100;5.116;2023-05-07T00:23:05;17.36;;;14.48;;
43511;SDS011;34054;52.100;5.116;2023-05-07T00:23:37;16.84;;;13.88;;
43511;SDS011;34054;52.100;5.116;2023-05-07T00:24:09;16.58;;;13.68;;
43511;SDS011;34054;52.100;5.116;2023-05-07T00:24:40;16.68;;;14.48;;
43511;SDS011;34054;52.100;5.116;2023-05-07T00:25:12;13.58;;;12.38;;
43511;SDS011;34054;52.100;5.116;2023-05-07T00:25:44;21.67;;;15.30;;
43511;SDS011;34054;52.100;5.116;2023-05-07T00:26:15;14.20;;;12.58;;
43511;SDS011;34054;52.100;5.116;2023-05-07T00:26:46;14.06;;;12.58;;
43511;SDS011;34054;52.100;5.116;2023-05-07T00:27:19;16.70;;;15.10;;
43511;SDS011;34054;52.100;5.116;2023-05-07T00:27:50;16.92;;;15.22;;
43511;SDS011;34054;52.100;5.116;2023-05-07T00:28:21;16.08;;;12.30;;
43511;SDS011;34054;52.100;5.116;2023-05-07T00:28:53;14.26;;;13.00;;
43511;SDS011;34054;52.100;5.116;2023-05-07T00:29:24;17.40;;;14.74;;
43511;SDS011;34054;52.100;5.116;2023-05-07T00:29:55;15.94;;;14.34;;
43511;SDS011;34054;52.100;5.116;2023-05-07T00:30:28;18.76;;;14.32;;
43511;SDS011;34054;52.100;5.116;2023-05-07T00:30:59;17.02;;;12.44;;
43511;SDS011;34054;52.100;5.116;2023-05-07T00:31:30;13.00;;;11.66;;
43511;SDS011;34054;52.100;5.116;2023-05-07T00:32:02;13.64;;;11.64;;
43511;SDS011;34054;52.100;5.116;2023-05-07T00:32:34;14.74;;;13.54;;
43511;SDS011;34054;52.100;5.116;2023-05-07T00:33:05;14.04;;;12.68;;
43511;SDS011;34054;52.100;5.116;2023-05-07T00:33:37;12.66;;;11.46;;
43511;SDS011;34054;52.100;5.116;2023-05-07T00:34:08;16.58;;;14.60;;
43511;SDS011;34054;52.100;5.116;2023-05-07T00:34:40;18.46;;;12.76;;
43511;SDS011;34054;52.100;5.116;2023-05-07T00:35:12;14.38;;;12.82;;
43511;SDS011;34054;52.100;5.116;2023-05-07T00:35:43;14.90;;;13.50;;
43511;SDS011;34054;52.100;5.116;2023-05-07T00:36:15;14.12;;;12.90;;
43511;SDS011;34054;52.100;5.116;2023-05-07T00:36:48;15.68;;;13.98;;
43511;SDS011;34054;52.100;5.116;2023-05-07T00:37:19;13.86;;;12.68;;
43511;SDS011;34054;52.100;5.116;2023-05-07T00:37:51;16.92;;;15.12;;
43511;SDS011;34054;52.100;5.116;2023-05-07T00:38:22;15.34;;;12.24;;
43511;SDS011;34054;52.100;5.116;2023-05-07T00:38:54;13.74;;;12.38;;
43511;SDS011;34054;52.100;5.116;2023-05-07T00:39:27;14.60;;;12.98;;
43511;SDS011;34054;52.100;5.116;2023-05-07T00:39:58;12.14;;;10.84;;
43511;SDS011;34054;52.100;5.116;2023-05-07T00:40:31;15.10;;;13.48;;
43511;SDS011;34054;52.100;5.116;2023-05-07T00:41:02;14.32;;;11.92;;
43511;SDS011;34054;52.100;5.116;2023-05-07T00:41:33;18.80;;;14.12;;
43511;SDS011;34054;52.100;5.116;2023-05-07T00:42:05;13.64;;;12.34;;
43511;SDS011;34054;52.100;5.116;2023-05-07T00:42:36;17.30;;;11.70;;
43511;SDS011;34054;52.100;5.116;2023-05-07T00:43:08;16.00;;;14.28;;
43511;SDS011;34054;52.100;5.116;2023-05-07T00:43:40;20.78;;;11.52;;
43511;SDS011;34054;52.100;5.116;2023-05-07T00:44:11;14.22;;;12.80;;
43511;SDS011;34054;52.100;5.116;2023-05-07T00:44:44;12.56;;;11.28;;
43511;SDS011;34054;52.100;5.116;2023-05-07T00:45:17;13.80;;;12.54;;
43511;SDS011;34054;52.100;5.116;2023-05-07T00:45:48;13.66;;;12.26;;
43511;SDS011;34054;52.100;5.116;2023-05-07T00:46:20;17.80;;;13.04;;
43511;SDS011;34054;52.100;5.116;2023-05-07T00:46:53;12.56;;;11.26;;
43511;SDS011;34054;52.100;5.116;2023-05-07T00:47:24;14.60;;;11.12;;
43511;SDS011;34054;52.100;5.116;2023-05-07T00:47:58;13.74;;;10.78;;
43511;SDS011;34054;52.100;5.116;2023-05-07T00:48:32;14.22;;;12.58;;
43511;SDS011;34054;52.100;5.116;2023-05-07T00:49:03;14.64;;;12.02;;
43511;SDS011;34054;52.100;5.116;2023-05-07T00:49:37;14.00;;;12.64;;
43511;SDS011;34054;52.100;5.116;2023-05-07T00:50:10;11.98;;;10.86;;
43511;SDS011;34054;52.100;5.116;2023-05-07T00:50:43;13.52;;;12.14;;
43511;SDS011;34054;52.100;5.116;2023-05-07T00:51:16;13.78;;;11.98;;
43511;SDS011;34054;52.100;5.116;2023-05-07T00:51:49;14.04;;;12.34;;
43511;SDS011;34054;52.100;5.116;2023-05-07T00:52:21;11.10;;;9.94;;
43511;SDS011;34054;52.100;5.116;2023-05-07T00:52:57;11.68;;;9.92;;
43511;SDS011;34054;52.100;5.116;2023-05-07T00:53:29;10.88;;;9.88;;
43511;SDS011;34054;52.100;5.116;2023-05-07T00:54:01;13.98;;;12.46;;
43511;SDS011;34054;52.100;5.116;2023-05-07T00:54:35;11.94;;;10.62;;
43511;SDS011;34054;52.100;5.116;2023-05-07T00:55:07;13.78;;;12.34;;
43511;SDS011;34054;52.100;5.116;2023-05-07T00:55:38;12.36;;;11.24;;
43511;SDS011;34054;52.100;5.116;2023-05-07T00:56:11;16.10;;;12.74;;
43511;SDS011;34054;52.100;5.116;2023-05-07T00:56:42;11.30;;;9.86;;
43511;SDS011;34054;52.100;5.116;2023-05-07T00:57:14;15.88;;;11.04;;
43511;SDS011;34054;52.100;5.116;2023-05-07T00:57:47;14.40;;;10.00;;
43511;SDS011;34054;52.100;5.116;2023-05-07T00:58:18;11.54;;;10.46;;
43511;SDS011;34054;52.100;5.116;2023-05-07T00:58:50;10.52;;;9.42;;
43511;SDS011;34054;52.100;5.116;2023-05-07T00:59:23;15.72;;;11.38;;
43511;SDS011;34054;52.100;5.116;2023-05-07T00:59:54;10.64;;;9.64;;
43511;SDS011;34054;52.100;5.116;2023-05-07T01:00:26;12.92;;;11.68;;
43511;SDS011;34054;52.100;5.116;2023-05-07T01:00:58;9.52;;;8.52;;
43511;SDS011;34054;52.100;5.116;2023-05-07T01:01:30;12.00;;;10.80;;
43511;SDS011;34054;52.100;5.116;2023-05-07T01:02:02;10.52;;;8.58;;
43511;SDS011;34054;52.100;5.116;2023-05-07T01:02:34;12.28;;;10.70;;
43511;SDS011;34054;52.100;5.116;2023-05-07T01:03:05;12.22;;;11.02;;
43511;SDS011;34054;52.100;5.116;2023-05-07T01:03:37;11.22;;;10.20;;
43511;SDS011;34054;52.100;5.116;2023-05-07T01:04:09;13.68;;;9.92;;
43511;SDS011;34054;52.100;5.116;2023-05-07T01:04:40;16.32;;;10.68;;
43511;SDS011;34054;52.100;5.116;2023-05-07T01:05:12;11.08;;;9.92;;
43511;SDS011;34054;52.100;5.116;2023-05-07T01:05:46;10.16;;;8.86;;
43511;SDS011;34054;52.100;5.116;2023-05-07T01:06:20;10.82;;;9.56;;
43511;SDS011;34054;52.100;5.116;2023-05-07T01:06:55;11.68;;;10.08;;
43511;SDS011;34054;52.100;5.116;2023-05-07T01:07:29;9.40;;;8.50;;
43511;SDS011;34054;52.100;5.116;2023-05-07T01:08:01;15.02;;;10.70;;
43511;SDS011;34054;52.100;5.116;2023-05-07T01:08:34;10.90;;;9.96;;
43511;SDS011;34054;52.100;5.116;2023-05-07T01:09:05;16.44;;;10.46;;
43511;SDS011;34054;52.100;5.116;2023-05-07T01:09:37;10.86;;;9.96;;
43511;SDS011;34054;52.100;5.116;2023-05-07T01:10:12;9.70;;;8.52;;
43511;SDS011;34054;52.100;5.116;2023-05-07T01:10:45;10.80;;;9.86;;
43511;SDS011;34054;52.100;5.116;2023-05-07T01:11:17;10.64;;;9.56;;
43511;SDS011;34054;52.100;5.116;2023-05-07T01:11:50;9.44;;;8.38;;
43511;SDS011;34054;52.100;5.116;2023-05-07T01:12:22;8.20;;;7.38;;
43511;SDS011;34054;52.100;5.116;2023-05-07T01:12:55;8.48;;;7.66;;
43511;SDS011;34054;52.100;5.116;2023-05-07T01:13:27;10.14;;;9.24;;
43511;SDS011;34054;52.100;5.116;2023-05-07T01:13:58;14.74;;;9.62;;
43511;SDS011;34054;52.100;5.116;2023-05-07T01:14:30;11.08;;;7.98;;
43511;SDS011;34054;52.100;5.116;2023-05-07T01:15:03;9.82;;;7.26;;
43511;SDS011;34054;52.100;5.116;2023-05-07T01:15:38;15.24;;;7.46;;
43511;SDS011;34054;52.100;5.116;2023-05-07T01:16:11;9.78;;;8.98;;
43511;SDS011;34054;52.100;5.116;2023-05-07T01:16:43;9.74;;;8.24;;
43511;SDS011;34054;52.100;5.116;2023-05-07T01:17:15;10.04;;;9.10;;
43511;SDS011;34054;52.100;5.116;2023-05-07T01:17:46;11.52;;;10.36;;
43511;SDS011;34054;52.100;5.116;2023-05-07T01:18:17;9.88;;;8.72;;
43511;SDS011;34054;52.100;5.116;2023-05-07T01:18:50;8.38;;;7.52;;
43511;SDS011;34054;52.100;5.116;2023-05-07T01:19:21;9.02;;;8.22;;
43511;SDS011;34054;52.100;5.116;2023-05-07T01:19:52;9.26;;;8.06;;
43511;SDS011;34054;52.100;5.116;2023-05-07T01:20:25;12.44;;;8.34;;
43511;SDS011;34054;52.100;5.116;2023-05-07T01:20:57;11.58;;;8.22;;
43511;SDS011;34054;52.100;5.116;2023-05-07T01:21:29;9.30;;;8.34;;
43511;SDS011;34054;52.100;5.116;2023-05-07T01:22:08;9.92;;;8.68;;
43511;SDS011;34054;52.100;5.116;2023-05-07T01:22:42;13.16;;;7.90;;
43511;SDS011;34054;52.100;5.116;2023-05-07T01:23:14;12.10;;;9.96;;
43511;SDS011;34054;52.100;5.116;2023-05-07T01:23:47;9.04;;;8.14;;
43511;SDS011;34054;52.100;5.116;2023-05-07T01:24:18;9.08;;;8.28;;
43511;SDS011;34054;52.100;5.116;2023-05-07T01:24:49;9.02;;;8.08;;
43511;SDS011;34054;52.100;5.116;2023-05-07T01:25:22;13.88;;;9.14;;
43511;SDS011;34054;52.100;5.116;2023-05-07T01:25:54;9.50;;;7.32;;
43511;SDS011;34054;52.100;5.116;2023-05-07T01:26:25;10.10;;;8.12;;
43511;SDS011;34054;52.100;5.116;2023-05-07T01:26:57;6.84;;;6.22;;
43511;SDS011;34054;52.100;5.116;2023-05-07T01:27:28;10.26;;;9.24;;
43511;SDS011;34054;52.100;5.116;2023-05-07T01:28:00;10.72;;;9.06;;
43511;SDS011;34054;52.100;5.116;2023-05-07T01:28:32;8.82;;;7.96;;
43511;SDS011;34054;52.100;5.116;2023-05-07T01:29:04;10.26;;;9.20;;
43511;SDS011;34054;52.100;5.116;2023-05-07T01:29:35;15.92;;;9.32;;
43511;SDS011;34054;52.100;5.116;2023-05-07T01:30:07;10.56;;;8.26;;
43511;SDS011;34054;52.100;5.116;2023-05-07T01:30:39;9.46;;;8.54;;
43511;SDS011;34054;52.100;5.116;2023-05-07T01:31:15;9.92;;;8.92;;
43511;SDS011;34054;52.100;5.116;2023-05-07T01:31:49;11.24;;;9.38;;
43511;SDS011;34054;52.100;5.116;2023-05-07T01:32:23;9.54;;;8.44;;
43511;SDS011;34054;52.100;5.116;2023-05-07T01:32:58;10.66;;;9.02;;
43511;SDS011;34054;52.100;5.116;2023-05-07T01:33:35;10.90;;;8.40;;
43511;SDS011;34054;52.100;5.116;2023-05-07T01:34:09;10.54;;;9.44;;
43511;SDS011;34054;52.100;5.116;2023-05-07T01:34:41;9.34;;;6.20;;
43511;SDS011;34054;52.100;5.116;2023-05-07T01:35:17;15.64;;;9.78;;
43511;SDS011;34054;52.100;5.116;2023-05-07T01:35:51;13.00;;;8.76;;
43511;SDS011;34054;52.100;5.116;2023-05-07T01:36:24;9.72;;;7.64;;
43511;SDS011;34054;52.100;5.116;2023-05-07T01:36:57;8.66;;;7.80;;
43511;SDS011;34054;52.100;5.116;2023-05-07T01:37:31;9.14;;;8.26;;
43511;SDS011;34054;52.100;5.116;2023-05-07T01:38:04;9.46;;;7.70;;
43511;SDS011;34054;52.100;5.116;2023-05-07T01:38:36;8.88;;;8.02;;
43511;SDS011;34054;52.100;5.116;2023-05-07T01:39:11;10.66;;;7.96;;
43511;SDS011;34054;52.100;5.116;2023-05-07T01:39:43;9.94;;;8.90;;
43511;SDS011;34054;52.100;5.116;2023-05-07T01:40:15;9.24;;;7.52;;
43511;SDS011;34054;52.100;5.116;2023-05-07T01:40:48;10.06;;;9.02;;
43511;SDS011;34054;52.100;5.116;2023-05-07T01:41:20;13.64;;;8.30;;
43511;SDS011;34054;52.100;5.116;2023-05-07T01:41:52;9.42;;;7.80;;
43511;SDS011;34054;52.100;5.116;2023-05-07T01:42:25;9.28;;;8.38;;
43511;SDS011;34054;52.100;5.116;2023-05-07T01:42:56;7.70;;;6.94;;
43511;SDS011;34054;52.100;5.116;2023-05-07T01:43:28;14.50;;;7.52;;
43511;SDS011;34054;52.100;5.116;2023-05-07T01:44:00;9.36;;;8.44;;
43511;SDS011;34054;52.100;5.116;2023-05-07T01:44:33;13.54;;;8.62;;
43511;SDS011;34054;52.100;5.116;2023-05-07T01:45:05;11.30;;;10.30;;
43511;SDS011;34054;52.100;5.116;2023-05-07T01:45:38;10.10;;;9.10;;
43511;SDS011;34054;52.100;5.116;2023-05-07T01:46:10;9.32;;;8.16;;
43511;SDS011;34054;52.100;5.116;2023-05-07T01:46:43;12.34;;;7.86;;
43511;SDS011;34054;52.100;5.116;2023-05-07T01:47:16;8.84;;;7.92;;
43511;SDS011;34054;52.100;5.116;2023-05-07T01:47:48;8.18;;;7.32;;
43511;SDS011;34054;52.100;5.116;2023-05-07T01:48:20;7.58;;;6.64;;
43511;SDS011;34054;52.100;5.116;2023-05-07T01:48:52;9.02;;;8.18;;
43511;SDS011;34054;52.100;5.116;2023-05-07T01:49:23;9.68;;;7.46;;
43511;SDS011;34054;52.100;5.116;2023-05-07T01:49:55;7.38;;;6.68;;
43511;SDS011;34054;52.100;5.116;2023-05-07T01:50:28;12.66;;;9.50;;
43511;SDS011;34054;52.100;5.116;2023-05-07T01:51:02;7.96;;;7.16;;
43511;SDS011;34054;52.100;5.116;2023-05-07T01:51:35;8.74;;;6.76;;
43511;SDS011;34054;52.100;5.116;2023-05-07T01:52:07;8.66;;;7.76;;
43511;SDS011;34054;52.100;5.116;2023-05-07T01:52:41;8.80;;;7.12;;
43511;SDS011;34054;52.100;5.116;2023-05-07T01:53:13;9.14;;;8.18;;
43511;SDS011;34054;52.100;5.116;2023-05-07T01:53:45;8.76;;;7.86;;
43511;SDS011;34054;52.100;5.116;2023-05-07T01:54:24;9.58;;;8.46;;
43511;SDS011;34054;52.100;5.116;2023-05-07T01:54:58;9.82;;;7.30;;
43511;SDS011;34054;52.100;5.116;2023-05-07T01:55:30;9.70;;;8.60;;
43511;SDS011;34054;52.100;5.116;2023-05-07T01:56:01;12.40;;;7.62;;
43511;SDS011;34054;52.100;5.116;2023-05-07T01:56:32;9.42;;;7.46;;
43511;SDS011;34054;52.100;5.116;2023-05-07T01:57:05;8.68;;;7.32;;
43511;SDS011;34054;52.100;5.116;2023-05-07T01:57:36;11.82;;;7.00;;
43511;SDS011;34054;52.100;5.116;2023-05-07T01:58:08;8.40;;;7.52;;
43511;SDS011;34054;52.100;5.116;2023-05-07T01:58:39;11.68;;;8.80;;
43511;SDS011;34054;52.100;5.116;2023-05-07T01:59:11;7.04;;;6.38;;
43511;SDS011;34054;52.100;5.116;2023-05-07T01:59:44;10.02;;;6.86;;
43511;SDS011;34054;52.100;5.116;2023-05-07T02:00:15;11.48;;;7.80;;
43511;SDS011;34054;52.100;5.116;2023-05-07T02:00:48;9.32;;;8.48;;
43511;SDS011;34054;52.100;5.116;2023-05-07T02:01:19;10.98;;;7.78;;
43511;SDS011;34054;52.100;5.116;2023-05-07T02:01:50;8.40;;;7.60;;
43511;SDS011;34054;52.100;5.116;2023-05-07T02:02:22;8.36;;;7.54;;
43511;SDS011;34054;52.100;5.116;2023-05-07T02:02:54;8.70;;;6.94;;
43511;SDS011;34054;52.100;5.116;2023-05-07T02:03:25;7.96;;;7.16;;
43511;SDS011;34054;52.100;5.116;2023-05-07T02:03:57;7.42;;;6.44;;
43511;SDS011;34054;52.100;5.116;2023-05-07T02:04:28;8.92;;;6.90;;
43511;SDS011;34054;52.100;5.116;2023-05-07T02:05:00;11.22;;;7.26;;
43511;SDS011;34054;52.100;5.116;2023-05-07T02:05:31;7.90;;;7.10;;
43511;SDS011;34054;52.100;5.116;2023-05-07T02:06:03;8.16;;;6.66;;
43511;SDS011;34054;52.100;5.116;2023-05-07T02:06:34;5.95;;;5.45;;
43511;SDS011;34054;52.100;5.116;2023-05-07T02:07:06;8.86;;;6.02;;
43511;SDS011;34054;52.100;5.116;2023-05-07T02:07:37;8.40;;;7.58;;
43511;SDS011;34054;52.100;5.116;2023-05-07T02:08:08;9.46;;;6.88;;
43511;SDS011;34054;52.100;5.116;2023-05-07T02:08:41;8.70;;;7.14;;
43511;SDS011;34054;52.100;5.116;2023-05-07T02:09:14;9.64;;;8.76;;
43511;SDS011;34054;52.100;5.116;2023-05-07T02:09:45;7.84;;;5.76;;
43511;SDS011;34054;52.100;5.116;2023-05-07T02:10:16;10.76;;;7.72;;
43511;SDS011;34054;52.100;5.116;2023-05-07T02:10:48;6.60;;;5.94;;
43511;SDS011;34054;52.100;5.116;2023-05-07T02:11:20;7.40;;;6.70;;
43511;SDS011;34054;52.100;5.116;2023-05-07T02:11:51;7.30;;;6.54;;
43511;SDS011;34054;52.100;5.116;2023-05-07T02:12:23;7.74;;;6.30;;
43511;SDS011;34054;52.100;5.116;2023-05-07T02:12:55;7.12;;;6.36;;
43511;SDS011;34054;52.100;5.116;2023-05-07T02:13:26;7.52;;;5.28;;
43511;SDS011;34054;52.100;5.116;2023-05-07T02:13:59;10.04;;;6.56;;
43511;SDS011;34054;52.100;5.116;2023-05-07T02:14:31;8.94;;;7.46;;
43511;SDS011;34054;52.100;5.116;2023-05-07T02:15:03;8.08;;;6.64;;
43511;SDS011;34054;52.100;5.116;2023-05-07T02:15:34;6.54;;;5.82;;
43511;SDS011;34054;52.100;5.116;2023-05-07T02:16:06;12.32;;;5.78;;
43511;SDS011;34054;52.100;5.116;2023-05-07T02:16:38;6.48;;;5.70;;
43511;SDS011;34054;52.100;5.116;2023-05-07T02:17:09;6.88;;;6.18;;
43511;SDS011;34054;52.100;5.116;2023-05-07T02:18:31;7.60;;;5.70;;
43511;SDS011;34054;52.100;5.116;2023-05-07T02:19:02;7.28;;;5.44;;
43511;SDS011;34054;52.100;5.116;2023-05-07T02:19:34;15.54;;;7.90;;
43511;SDS011;34054;52.100;5.116;2023-05-07T02:20:06;6.70;;;5.60;;
43511;SDS011;34054;52.100;5.116;2023-05-07T02:20:43;7.88;;;5.98;;
43511;SDS011;34054;52.100;5.116;2023-05-07T02:21:15;7.92;;;6.84;;
43511;SDS011;34054;52.100;5.116;2023-05-07T02:21:47;7.80;;;7.02;;
43511;SDS011;34054;52.100;5.116;2023-05-07T02:22:18;9.60;;;5.66;;
43511;SDS011;34054;52.100;5.116;2023-05-07T02:22:49;8.22;;;6.88;;
43511;SDS011;34054;52.100;5.116;2023-05-07T02:23:20;10.24;;;8.22;;
43511;SDS011;34054;52.100;5.116;2023-05-07T02:23:54;7.78;;;6.66;;
43511;SDS011;34054;52.100;5.116;2023-05-07T02:24:25;13.48;;;6.94;;
43511;SDS011;34054;52.100;5.116;2023-05-07T02:24:57;9.56;;;6.16;;
43511;SDS011;34054;52.100;5.116;2023-05-07T02:25:29;8.90;;;6.72;;
43511;SDS011;34054;52.100;5.116;2023-05-07T02:26:00;7.88;;;5.98;;
43511;SDS011;34054;52.100;5.116;2023-05-07T02:26:31;7.60;;;6.16;;
43511;SDS011;34054;52.100;5.116;2023-05-07T02:27:04;9.05;;;6.90;;
43511;SDS011;34054;52.100;5.116;2023-05-07T02:27:35;7.85;;;5.97;;
43511;SDS011;34054;52.100;5.116;2023-05-07T02:28:07;7.48;;;6.30;;
43511;SDS011;34054;52.100;5.116;2023-05-07T02:28:38;9.64;;;6.40;;
43511;SDS011;34054;52.100;5.116;2023-05-07T02:29:10;11.02;;;6.57;;
43511;SDS011;34054;52.100;5.116;2023-05-07T02:29:41;7.44;;;6.64;;
43511;SDS011;34054;52.100;5.116;2023-05-07T02:30:13;8.04;;;7.24;;
43511;SDS011;34054;52.100;5.116;2023-05-07T02:30:45;8.20;;;7.34;;
43511;SDS011;34054;52.100;5.116;2023-05-07T02:31:17;7.36;;;6.58;;
43511;SDS011;34054;52.100;5.116;2023-05-07T02:31:48;11.86;;;8.42;;
43511;SDS011;34054;52.100;5.116;2023-05-07T02:32:21;8.04;;;7.04;;
43511;SDS011;34054;52.100;5.116;2023-05-07T02:32:53;6.72;;;6.00;;
43511;SDS011;34054;52.100;5.116;2023-05-07T02:33:24;8.84;;;7.52;;
43511;SDS011;34054;52.100;5.116;2023-05-07T02:33:57;7.62;;;6.92;;
43511;SDS011;34054;52.100;5.116;2023-05-07T02:34:28;8.84;;;6.72;;
43511;SDS011;34054;52.100;5.116;2023-05-07T02:34:59;7.40;;;6.50;;
43511;SDS011;34054;52.100;5.116;2023-05-07T02:35:30;9.04;;;6.26;;
43511;SDS011;34054;52.100;5.116;2023-05-07T02:36:06;8.24;;;7.02;;
43511;SDS011;34054;52.100;5.116;2023-05-07T02:36:37;7.16;;;6.56;;
43511;SDS011;34054;52.100;5.116;2023-05-07T02:37:09;8.34;;;6.70;;
43511;SDS011;34054;52.100;5.116;2023-05-07T02:37:41;6.42;;;5.72;;
43511;SDS011;34054;52.100;5.116;2023-05-07T02:38:12;8.42;;;7.62;;
43511;SDS011;34054;52.100;5.116;2023-05-07T02:38:43;7.52;;;6.44;;
43511;SDS011;34054;52.100;5.116;2023-05-07T02:39:17;9.14;;;6.60;;
43511;SDS011;34054;52.100;5.116;2023-05-07T02:39:48;7.48;;;6.78;;
43511;SDS011;34054;52.100;5.116;2023-05-07T02:40:19;8.32;;;7.10;;
43511;SDS011;34054;52.100;5.116;2023-05-07T02:40:51;8.70;;;7.16;;
43511;SDS011;34054;52.100;5.116;2023-05-07T02:41:23;7.36;;;6.66;;
43511;SDS011;34054;52.100;5.116;2023-05-07T02:41:54;6.48;;;5.82;;
43511;SDS011;34054;52.100;5.116;2023-05-07T02:42:26;9.32;;;8.22;;
43511;SDS011;34054;52.100;5.116;2023-05-07T02:42:57;7.98;;;7.18;;
43511;SDS011;34054;52.100;5.116;2023-05-07T02:43:28;10.68;;;7.22;;
43511;SDS011;34054;52.100;5.116;2023-05-07T02:44:01;7.02;;;6.40;;
43511;SDS011;34054;52.100;5.116;2023-05-07T02:44:32;15.04;;;8.12;;
43511;SDS011;34054;52.100;5.116;2023-05-07T02:45:03;12.20;;;8.42;;
43511;SDS011;34054;52.100;5.116;2023-05-07T02:45:36;11.10;;;8.82;;
43511;SDS011;34054;52.100;5.116;2023-05-07T02:46:08;8.70;;;7.52;;
43511;SDS011;34054;52.100;5.116;2023-05-07T02:46:39;11.50;;;8.04;;
43511;SDS011;34054;52.100;5.116;2023-05-07T02:47:12;9.72;;;8.16;;
43511;SDS011;34054;52.100;5.116;2023-05-07T02:47:44;11.50;;;9.68;;
43511;SDS011;34054;52.100;5.116;2023-05-07T02:48:15;9.62;;;8.46;;
43511;SDS011;34054;52.100;5.116;2023-05-07T02:48:47;8.54;;;6.98;;
43511;SDS011;34054;52.100;5.116;2023-05-07T02:49:18;8.84;;;7.94;;
43511;SDS011;34054;52.100;5.116;2023-05-07T02:49:49;11.80;;;8.24;;
43511;SDS011;34054;52.100;5.116;2023-05-07T02:50:20;8.82;;;7.96;;
43511;SDS011;34054;52.100;5.116;2023-05-07T02:50:53;12.34;;;7.90;;
43511;SDS011;34054;52.100;5.116;2023-05-07T02:51:25;8.12;;;7.34;;
43511;SDS011;34054;52.100;5.116;2023-05-07T02:51:57;19.62;;;9.30;;
43511;SDS011;34054;52.100;5.116;2023-05-07T02:52:29;9.12;;;8.32;;
43511;SDS011;34054;52.100;5.116;2023-05-07T02:53:00;10.00;;;9.10;;
43511;SDS011;34054;52.100;5.116;2023-05-07T02:53:32;7.94;;;7.14;;
43511;SDS011;34054;52.100;5.116;2023-05-07T02:54:04;8.74;;;7.46;;
43511;SDS011;34054;52.100;5.116;2023-05-07T02:54:37;11.70;;;8.62;;
43511;SDS011;34054;52.100;5.116;2023-05-07T02:55:08;9.52;;;7.80;;
43511;SDS011;34054;52.100;5.116;2023-05-07T02:55:39;11.24;;;6.80;;
43511;SDS011;34054;52.100;5.116;2023-05-07T02:56:11;7.86;;;7.02;;
43511;SDS011;34054;52.100;5.116;2023-05-07T02:56:43;10.54;;;8.92;;
43511;SDS011;34054;52.100;5.116;2023-05-07T02:57:14;9.00;;;8.10;;
43511;SDS011;34054;52.100;5.116;2023-05-07T02:57:46;7.68;;;6.96;;
43511;SDS011;34054;52.100;5.116;2023-05-07T02:58:17;11.14;;;8.48;;
43511;SDS011;34054;52.100;5.116;2023-05-07T02:58:48;8.20;;;7.18;;
43511;SDS011;34054;52.100;5.116;2023-05-07T02:59:21;12.84;;;8.96;;
43511;SDS011;34054;52.100;5.116;2023-05-07T02:59:52;9.88;;;8.78;;
43511;SDS011;34054;52.100;5.116;2023-05-07T03:00:23;9.54;;;7.74;;
43511;SDS011;34054;52.100;5.116;2023-05-07T03:00:56;10.84;;;8.72;;
43511;SDS011;34054;52.100;5.116;2023-05-07T03:01:27;11.22;;;7.90;;
43511;SDS011;34054;52.100;5.116;2023-05-07T03:01:58;8.72;;;7.78;;
43511;SDS011;34054;52.100;5.116;2023-05-07T03:02:30;8.18;;;7.42;;
43511;SDS011;34054;52.100;5.116;2023-05-07T03:03:01;7.90;;;7.10;;
43511;SDS011;34054;52.100;5.116;2023-05-07T03:03:33;8.32;;;6.96;;
43511;SDS011;34054;52.100;5.116;2023-05-07T03:04:06;7.62;;;6.86;;
43511;SDS011;34054;52.100;5.116;2023-05-07T03:04:37;9.16;;;7.44;;
43511;SDS011;34054;52.100;5.116;2023-05-07T03:05:09;20.44;;;8.18;;
43511;SDS011;34054;52.100;5.116;2023-05-07T03:05:41;9.44;;;6.42;;
43511;SDS011;34054;52.100;5.116;2023-05-07T03:06:12;8.58;;;7.72;;
43511;SDS011;34054;52.100;5.116;2023-05-07T03:06:44;8.10;;;7.30;;
43511;SDS011;34054;52.100;5.116;2023-05-07T03:07:15;8.38;;;7.50;;
43511;SDS011;34054;52.100;5.116;2023-05-07T03:07:47;12.22;;;7.62;;
43511;SDS011;34054;52.100;5.116;2023-05-07T03:08:19;9.12;;;8.30;;
43511;SDS011;34054;52.100;5.116;2023-05-07T03:08:50;7.10;;;6.40;;
43511;SDS011;34054;52.100;5.116;2023-05-07T03:09:22;7.40;;;6.68;;
43511;SDS011;34054;52.100;5.116;2023-05-07T03:09:54;9.00;;;7.52;;
43511;SDS011;34054;52.100;5.116;2023-05-07T03:10:26;9.44;;;8.42;;
43511;SDS011;34054;52.100;5.116;2023-05-07T03:10:57;8.46;;;6.98;;
43511;SDS011;34054;52.100;5.116;2023-05-07T03:11:29;7.98;;;7.18;;